sensor_id;sensor_type;location;lat;lon;timestamp;P1;durP1;ratioP1;P2;durP2;ratioP2
58101;SDS011;52034;51.926;6.320;2023-07-31T00:00:35;3.50;;;2.40;;
58101;SDS011;52034;51.926;6.320;2023-07-31T00:01:36;3.67;;;2.20;;
58101;SDS011;52034;51.926;6.320;2023-07-31T00:02:36;2.83;;;2.30;;
58101;SDS011;52034;51.926;6.320;2023-07-31T00:03:37;2.70;;;2.47;;
58101;SDS011;52034;51.926;6.320;2023-07-31T00:04:37;3.30;;;2.57;;
58101;SDS011;52034;51.926;6.320;2023-07-31T00:05:37;3.10;;;2.37;;
58101;SDS011;52034;51.926;6.320;2023-07-31T00:06:37;3.00;;;2.10;;
58101;SDS011;52034;51.926;6.320;2023-07-31T00:07:38;2.93;;;2.60;;
58101;SDS011;52034;51.926;6.320;2023-07-31T00:08:38;3.23;;;2.27;;
58101;SDS011;52034;51.926;6.320;2023-07-31T00:09:38;2.30;;;2.07;;
58101;SDS011;52034;51.926;6.320;2023-07-31T00:10:39;3.53;;;2.47;;
58101;SDS011;52034;51.926;6.320;2023-07-31T00:11:39;2.10;;;1.90;;
58101;SDS011;52034;51.926;6.320;2023-07-31T00:12:41;2.10;;;2.00;;
58101;SDS011;52034;51.926;6.320;2023-07-31T00:13:42;3.53;;;2.30;;
58101;SDS011;52034;51.926;6.320;2023-07-31T00:14:43;2.00;;;1.90;;
58101;SDS011;52034;51.926;6.320;2023-07-31T00:15:43;2.40;;;2.20;;
58101;SDS011;52034;51.926;6.320;2023-07-31T00:16:43;1.90;;;1.80;;
58101;SDS011;52034;51.926;6.320;2023-07-31T00:17:44;2.60;;;2.27;;
58101;SDS011;52034;51.926;6.320;2023-07-31T00:18:44;2.80;;;1.83;;
58101;SDS011;52034;51.926;6.320;2023-07-31T00:19:44;4.00;;;2.20;;
58101;SDS011;52034;51.926;6.320;2023-07-31T00:20:46;1.95;;;1.85;;
58101;SDS011;52034;51.926;6.320;2023-07-31T00:21:46;3.13;;;2.07;;
58101;SDS011;52034;51.926;6.320;2023-07-31T00:22:47;2.13;;;1.90;;
58101;SDS011;52034;51.926;6.320;2023-07-31T00:23:47;1.80;;;1.70;;
58101;SDS011;52034;51.926;6.320;2023-07-31T00:24:47;2.90;;;2.23;;
58101;SDS011;52034;51.926;6.320;2023-07-31T00:25:48;2.97;;;2.23;;
58101;SDS011;52034;51.926;6.320;2023-07-31T00:26:48;2.50;;;2.07;;
58101;SDS011;52034;51.926;6.320;2023-07-31T00:27:48;5.37;;;2.10;;
58101;SDS011;52034;51.926;6.320;2023-07-31T00:28:49;3.30;;;2.50;;
58101;SDS011;52034;51.926;6.320;2023-07-31T00:29:49;2.43;;;2.23;;
58101;SDS011;52034;51.926;6.320;2023-07-31T00:30:49;2.37;;;2.20;;
58101;SDS011;52034;51.926;6.320;2023-07-31T00:31:50;2.77;;;2.57;;
58101;SDS011;52034;51.926;6.320;2023-07-31T00:33:52;2.30;;;2.10;;
58101;SDS011;52034;51.926;6.320;2023-07-31T00:34:52;2.77;;;2.53;;
58101;SDS011;52034;51.926;6.320;2023-07-31T00:35:52;2.90;;;2.70;;
58101;SDS011;52034;51.926;6.320;2023-07-31T00:36:53;2.50;;;2.30;;
58101;SDS011;52034;51.926;6.320;2023-07-31T00:37:53;3.30;;;2.40;;
58101;SDS011;52034;51.926;6.320;2023-07-31T00:38:53;2.20;;;2.00;;
58101;SDS011;52034;51.926;6.320;2023-07-31T00:39:54;2.60;;;2.40;;
58101;SDS011;52034;51.926;6.320;2023-07-31T00:40:55;2.60;;;2.40;;
58101;SDS011;52034;51.926;6.320;2023-07-31T00:41:55;2.73;;;2.53;;
58101;SDS011;52034;51.926;6.320;2023-07-31T00:42:55;2.40;;;2.20;;
58101;SDS011;52034;51.926;6.320;2023-07-31T00:43:56;2.53;;;2.33;;
58101;SDS011;52034;51.926;6.320;2023-07-31T00:44:57;2.35;;;2.15;;
58101;SDS011;52034;51.926;6.320;2023-07-31T00:45:58;3.83;;;2.30;;
58101;SDS011;52034;51.926;6.320;2023-07-31T00:46:59;2.30;;;2.20;;
58101;SDS011;52034;51.926;6.320;2023-07-31T00:47:59;2.40;;;2.30;;
58101;SDS011;52034;51.926;6.320;2023-07-31T00:49:00;2.10;;;2.00;;
58101;SDS011;52034;51.926;6.320;2023-07-31T00:50:00;2.40;;;2.07;;
58101;SDS011;52034;51.926;6.320;2023-07-31T00:51:01;2.07;;;1.87;;
58101;SDS011;52034;51.926;6.320;2023-07-31T00:52:01;2.53;;;2.07;;
58101;SDS011;52034;51.926;6.320;2023-07-31T00:53:03;2.13;;;2.00;;
58101;SDS011;52034;51.926;6.320;2023-07-31T00:54:03;2.50;;;2.30;;
58101;SDS011;52034;51.926;6.320;2023-07-31T00:55:04;2.47;;;2.10;;
58101;SDS011;52034;51.926;6.320;2023-07-31T00:56:04;2.63;;;2.38;;
58101;SDS011;52034;51.926;6.320;2023-07-31T00:57:06;2.65;;;2.17;;
58101;SDS011;52034;51.926;6.320;2023-07-31T00:58:08;2.63;;;2.42;;
58101;SDS011;52034;51.926;6.320;2023-07-31T00:59:08;3.17;;;2.83;;
58101;SDS011;52034;51.926;6.320;2023-07-31T01:00:09;2.77;;;2.50;;
58101;SDS011;52034;51.926;6.320;2023-07-31T01:01:10;2.70;;;2.50;;
58101;SDS011;52034;51.926;6.320;2023-07-31T01:02:10;3.13;;;2.83;;
58101;SDS011;52034;51.926;6.320;2023-07-31T01:03:10;3.70;;;2.80;;
58101;SDS011;52034;51.926;6.320;2023-07-31T01:04:12;4.30;;;3.88;;
58101;SDS011;52034;51.926;6.320;2023-07-31T01:05:13;8.13;;;4.43;;
58101;SDS011;52034;51.926;6.320;2023-07-31T01:07:36;6.88;;;4.38;;
58101;SDS011;52034;51.926;6.320;2023-07-31T01:08:54;6.82;;;5.38;;
58101;SDS011;52034;51.926;6.320;2023-07-31T01:10:04;10.15;;;6.30;;
58101;SDS011;52034;51.926;6.320;2023-07-31T01:11:17;12.82;;;7.22;;
58101;SDS011;52034;51.926;6.320;2023-07-31T01:12:21;13.13;;;7.10;;
58101;SDS011;52034;51.926;6.320;2023-07-31T01:13:23;19.52;;;8.50;;
58101;SDS011;52034;51.926;6.320;2023-07-31T01:14:24;19.23;;;8.97;;
58101;SDS011;52034;51.926;6.320;2023-07-31T01:15:24;20.17;;;9.13;;
58101;SDS011;52034;51.926;6.320;2023-07-31T01:16:25;20.27;;;8.77;;
58101;SDS011;52034;51.926;6.320;2023-07-31T01:17:27;20.50;;;9.75;;
58101;SDS011;52034;51.926;6.320;2023-07-31T01:18:27;17.63;;;9.70;;
58101;SDS011;52034;51.926;6.320;2023-07-31T01:19:28;21.67;;;10.10;;
58101;SDS011;52034;51.926;6.320;2023-07-31T01:20:29;26.33;;;10.88;;
58101;SDS011;52034;51.926;6.320;2023-07-31T01:21:37;25.58;;;11.27;;
58101;SDS011;52034;51.926;6.320;2023-07-31T01:24:28;26.45;;;11.82;;
58101;SDS011;52034;51.926;6.320;2023-07-31T01:25:54;27.00;;;12.52;;
58101;SDS011;52034;51.926;6.320;2023-07-31T01:27:04;24.63;;;12.05;;
58101;SDS011;52034;51.926;6.320;2023-07-31T01:28:12;28.90;;;12.20;;
58101;SDS011;52034;51.926;6.320;2023-07-31T01:29:17;31.80;;;12.93;;
58101;SDS011;52034;51.926;6.320;2023-07-31T01:30:26;35.78;;;13.82;;
58101;SDS011;52034;51.926;6.320;2023-07-31T01:31:33;31.20;;;12.68;;
58101;SDS011;52034;51.926;6.320;2023-07-31T01:32:40;30.65;;;12.75;;
58101;SDS011;52034;51.926;6.320;2023-07-31T01:33:43;30.73;;;13.07;;
58101;SDS011;52034;51.926;6.320;2023-07-31T01:34:44;34.75;;;13.85;;
58101;SDS011;52034;51.926;6.320;2023-07-31T01:35:48;30.83;;;13.43;;
58101;SDS011;52034;51.926;6.320;2023-07-31T01:36:49;25.75;;;12.70;;
58101;SDS011;52034;51.926;6.320;2023-07-31T01:37:51;30.73;;;12.97;;
58101;SDS011;52034;51.926;6.320;2023-07-31T01:38:57;25.33;;;13.45;;
58101;SDS011;52034;51.926;6.320;2023-07-31T01:39:58;32.38;;;13.10;;
58101;SDS011;52034;51.926;6.320;2023-07-31T01:40:59;33.40;;;14.73;;
58101;SDS011;52034;51.926;6.320;2023-07-31T01:41:59;35.33;;;14.00;;
58101;SDS011;52034;51.926;6.320;2023-07-31T01:43:00;24.87;;;14.03;;
58101;SDS011;52034;51.926;6.320;2023-07-31T01:44:00;30.97;;;13.47;;
58101;SDS011;52034;51.926;6.320;2023-07-31T01:45:00;29.60;;;13.27;;
58101;SDS011;52034;51.926;6.320;2023-07-31T01:46:01;36.28;;;14.48;;
58101;SDS011;52034;51.926;6.320;2023-07-31T01:47:02;30.27;;;13.47;;
58101;SDS011;52034;51.926;6.320;2023-07-31T01:48:02;35.40;;;13.90;;
58101;SDS011;52034;51.926;6.320;2023-07-31T01:49:02;28.27;;;13.63;;
58101;SDS011;52034;51.926;6.320;2023-07-31T01:50:03;31.63;;;13.17;;
58101;SDS011;52034;51.926;6.320;2023-07-31T01:51:03;30.23;;;13.00;;
58101;SDS011;52034;51.926;6.320;2023-07-31T01:52:04;30.50;;;14.63;;
58101;SDS011;52034;51.926;6.320;2023-07-31T01:53:05;28.85;;;14.45;;
58101;SDS011;52034;51.926;6.320;2023-07-31T01:54:05;30.13;;;13.27;;
58101;SDS011;52034;51.926;6.320;2023-07-31T01:55:05;29.10;;;13.57;;
58101;SDS011;52034;51.926;6.320;2023-07-31T01:56:06;27.33;;;13.43;;
58101;SDS011;52034;51.926;6.320;2023-07-31T01:57:07;31.25;;;13.18;;
58101;SDS011;52034;51.926;6.320;2023-07-31T01:58:09;30.60;;;14.20;;
58101;SDS011;52034;51.926;6.320;2023-07-31T01:59:10;28.52;;;14.10;;
58101;SDS011;52034;51.926;6.320;2023-07-31T02:00:10;33.07;;;13.40;;
58101;SDS011;52034;51.926;6.320;2023-07-31T02:01:14;31.52;;;13.25;;
58101;SDS011;52034;51.926;6.320;2023-07-31T02:02:14;31.17;;;13.50;;
58101;SDS011;52034;51.926;6.320;2023-07-31T02:03:14;30.00;;;13.27;;
58101;SDS011;52034;51.926;6.320;2023-07-31T02:04:15;33.17;;;13.97;;
58101;SDS011;52034;51.926;6.320;2023-07-31T02:05:17;27.15;;;12.52;;
58101;SDS011;52034;51.926;6.320;2023-07-31T02:06:17;29.87;;;12.93;;
58101;SDS011;52034;51.926;6.320;2023-07-31T02:07:18;27.30;;;13.73;;
58101;SDS011;52034;51.926;6.320;2023-07-31T02:08:18;33.57;;;13.20;;
58101;SDS011;52034;51.926;6.320;2023-07-31T02:09:19;27.52;;;13.35;;
58101;SDS011;52034;51.926;6.320;2023-07-31T02:10:19;27.43;;;11.57;;
58101;SDS011;52034;51.926;6.320;2023-07-31T02:11:20;26.10;;;12.67;;
58101;SDS011;52034;51.926;6.320;2023-07-31T02:12:20;30.77;;;13.23;;
58101;SDS011;52034;51.926;6.320;2023-07-31T02:13:20;27.63;;;12.13;;
58101;SDS011;52034;51.926;6.320;2023-07-31T02:14:21;32.20;;;13.07;;
58101;SDS011;52034;51.926;6.320;2023-07-31T02:15:21;27.50;;;12.53;;
58101;SDS011;52034;51.926;6.320;2023-07-31T02:16:21;25.80;;;11.93;;
58101;SDS011;52034;51.926;6.320;2023-07-31T02:17:22;25.90;;;13.17;;
58101;SDS011;52034;51.926;6.320;2023-07-31T02:18:22;30.50;;;12.80;;
58101;SDS011;52034;51.926;6.320;2023-07-31T02:19:23;27.93;;;11.50;;
58101;SDS011;52034;51.926;6.320;2023-07-31T02:20:23;26.53;;;11.90;;
58101;SDS011;52034;51.926;6.320;2023-07-31T02:21:24;25.00;;;11.90;;
58101;SDS011;52034;51.926;6.320;2023-07-31T02:22:24;21.67;;;11.70;;
58101;SDS011;52034;51.926;6.320;2023-07-31T02:23:24;21.10;;;11.07;;
58101;SDS011;52034;51.926;6.320;2023-07-31T02:24:25;30.33;;;12.27;;
58101;SDS011;52034;51.926;6.320;2023-07-31T02:25:25;27.30;;;12.50;;
58101;SDS011;52034;51.926;6.320;2023-07-31T02:26:26;28.13;;;11.40;;
58101;SDS011;52034;51.926;6.320;2023-07-31T02:27:26;27.80;;;12.43;;
58101;SDS011;52034;51.926;6.320;2023-07-31T02:28:28;29.15;;;12.15;;
58101;SDS011;52034;51.926;6.320;2023-07-31T02:29:28;29.08;;;11.93;;
58101;SDS011;52034;51.926;6.320;2023-07-31T02:30:29;29.83;;;12.07;;
58101;SDS011;52034;51.926;6.320;2023-07-31T02:31:29;35.47;;;12.87;;
58101;SDS011;52034;51.926;6.320;2023-07-31T02:32:29;29.57;;;12.87;;
58101;SDS011;52034;51.926;6.320;2023-07-31T02:33:30;27.10;;;11.93;;
58101;SDS011;52034;51.926;6.320;2023-07-31T02:34:30;25.43;;;11.50;;
58101;SDS011;52034;51.926;6.320;2023-07-31T02:35:30;29.60;;;11.87;;
58101;SDS011;52034;51.926;6.320;2023-07-31T02:36:31;29.70;;;11.20;;
58101;SDS011;52034;51.926;6.320;2023-07-31T02:37:31;25.83;;;11.03;;
58101;SDS011;52034;51.926;6.320;2023-07-31T02:38:32;27.50;;;11.83;;
58101;SDS011;52034;51.926;6.320;2023-07-31T02:39:32;25.60;;;11.40;;
58101;SDS011;52034;51.926;6.320;2023-07-31T02:40:33;29.00;;;11.37;;
58101;SDS011;52034;51.926;6.320;2023-07-31T02:41:33;26.93;;;10.67;;
58101;SDS011;52034;51.926;6.320;2023-07-31T02:42:33;20.60;;;10.67;;
58101;SDS011;52034;51.926;6.320;2023-07-31T02:43:34;23.73;;;11.20;;
58101;SDS011;52034;51.926;6.320;2023-07-31T02:44:35;26.98;;;11.45;;
58101;SDS011;52034;51.926;6.320;2023-07-31T02:45:36;22.27;;;10.10;;
58101;SDS011;52034;51.926;6.320;2023-07-31T02:46:36;24.80;;;10.37;;
58101;SDS011;52034;51.926;6.320;2023-07-31T02:47:36;23.27;;;10.67;;
58101;SDS011;52034;51.926;6.320;2023-07-31T02:48:37;25.87;;;10.60;;
58101;SDS011;52034;51.926;6.320;2023-07-31T02:49:37;25.17;;;11.33;;
58101;SDS011;52034;51.926;6.320;2023-07-31T02:50:37;26.87;;;10.17;;
58101;SDS011;52034;51.926;6.320;2023-07-31T02:51:38;24.67;;;10.73;;
58101;SDS011;52034;51.926;6.320;2023-07-31T02:52:38;20.27;;;9.77;;
58101;SDS011;52034;51.926;6.320;2023-07-31T02:53:38;23.43;;;9.93;;
58101;SDS011;52034;51.926;6.320;2023-07-31T02:54:39;20.77;;;10.70;;
58101;SDS011;52034;51.926;6.320;2023-07-31T02:55:39;22.63;;;10.73;;
58101;SDS011;52034;51.926;6.320;2023-07-31T02:56:39;20.93;;;10.43;;
58101;SDS011;52034;51.926;6.320;2023-07-31T02:57:40;23.80;;;9.97;;
58101;SDS011;52034;51.926;6.320;2023-07-31T02:58:40;24.13;;;10.43;;
58101;SDS011;52034;51.926;6.320;2023-07-31T02:59:41;26.77;;;10.43;;
58101;SDS011;52034;51.926;6.320;2023-07-31T03:00:41;26.67;;;9.60;;
58101;SDS011;52034;51.926;6.320;2023-07-31T03:01:42;26.85;;;10.60;;
58101;SDS011;52034;51.926;6.320;2023-07-31T03:02:43;21.47;;;9.57;;
58101;SDS011;52034;51.926;6.320;2023-07-31T03:03:43;23.77;;;10.07;;
58101;SDS011;52034;51.926;6.320;2023-07-31T03:04:45;24.52;;;9.60;;
58101;SDS011;52034;51.926;6.320;2023-07-31T03:05:46;24.37;;;10.23;;
58101;SDS011;52034;51.926;6.320;2023-07-31T03:06:46;24.97;;;10.07;;
58101;SDS011;52034;51.926;6.320;2023-07-31T03:07:47;24.33;;;9.87;;
58101;SDS011;52034;51.926;6.320;2023-07-31T03:08:47;22.30;;;10.43;;
58101;SDS011;52034;51.926;6.320;2023-07-31T03:09:48;23.48;;;10.05;;
58101;SDS011;52034;51.926;6.320;2023-07-31T03:10:49;26.00;;;10.17;;
58101;SDS011;52034;51.926;6.320;2023-07-31T03:11:49;23.23;;;9.73;;
58101;SDS011;52034;51.926;6.320;2023-07-31T03:12:50;21.57;;;10.40;;
58101;SDS011;52034;51.926;6.320;2023-07-31T03:13:50;26.33;;;8.70;;
58101;SDS011;52034;51.926;6.320;2023-07-31T03:14:50;22.97;;;8.93;;
58101;SDS011;52034;51.926;6.320;2023-07-31T03:15:51;26.70;;;9.83;;
58101;SDS011;52034;51.926;6.320;2023-07-31T03:16:51;25.10;;;9.40;;
58101;SDS011;52034;51.926;6.320;2023-07-31T03:17:51;32.80;;;9.63;;
58101;SDS011;52034;51.926;6.320;2023-07-31T03:18:52;19.63;;;9.13;;
58101;SDS011;52034;51.926;6.320;2023-07-31T03:19:52;27.10;;;10.47;;
58101;SDS011;52034;51.926;6.320;2023-07-31T03:20:52;25.93;;;9.53;;
58101;SDS011;52034;51.926;6.320;2023-07-31T03:21:53;26.00;;;9.90;;
58101;SDS011;52034;51.926;6.320;2023-07-31T03:22:53;22.00;;;9.27;;
58101;SDS011;52034;51.926;6.320;2023-07-31T03:23:53;22.43;;;9.47;;
58101;SDS011;52034;51.926;6.320;2023-07-31T03:24:54;25.60;;;9.57;;
58101;SDS011;52034;51.926;6.320;2023-07-31T03:26:01;22.53;;;9.03;;
58101;SDS011;52034;51.926;6.320;2023-07-31T03:27:03;25.17;;;10.20;;
58101;SDS011;52034;51.926;6.320;2023-07-31T03:28:04;20.90;;;9.17;;
58101;SDS011;52034;51.926;6.320;2023-07-31T03:29:04;24.03;;;9.53;;
58101;SDS011;52034;51.926;6.320;2023-07-31T03:30:05;23.03;;;8.67;;
58101;SDS011;52034;51.926;6.320;2023-07-31T03:31:06;25.05;;;9.57;;
58101;SDS011;52034;51.926;6.320;2023-07-31T03:32:08;27.70;;;10.18;;
58101;SDS011;52034;51.926;6.320;2023-07-31T03:33:08;22.87;;;8.67;;
58101;SDS011;52034;51.926;6.320;2023-07-31T03:34:09;26.73;;;9.37;;
58101;SDS011;52034;51.926;6.320;2023-07-31T03:35:09;25.80;;;9.00;;
58101;SDS011;52034;51.926;6.320;2023-07-31T03:36:10;26.80;;;9.23;;
58101;SDS011;52034;51.926;6.320;2023-07-31T03:37:10;28.87;;;9.10;;
58101;SDS011;52034;51.926;6.320;2023-07-31T03:38:10;20.73;;;8.57;;
58101;SDS011;52034;51.926;6.320;2023-07-31T03:39:11;24.87;;;9.37;;
58101;SDS011;52034;51.926;6.320;2023-07-31T03:40:11;21.40;;;8.50;;
58101;SDS011;52034;51.926;6.320;2023-07-31T03:41:11;21.80;;;8.87;;
58101;SDS011;52034;51.926;6.320;2023-07-31T03:42:12;22.43;;;8.73;;
58101;SDS011;52034;51.926;6.320;2023-07-31T03:43:12;22.17;;;9.03;;
58101;SDS011;52034;51.926;6.320;2023-07-31T03:44:13;21.52;;;8.63;;
58101;SDS011;52034;51.926;6.320;2023-07-31T03:45:14;25.17;;;8.87;;
58101;SDS011;52034;51.926;6.320;2023-07-31T03:46:14;21.53;;;8.33;;
58101;SDS011;52034;51.926;6.320;2023-07-31T03:47:14;23.20;;;8.77;;
58101;SDS011;52034;51.926;6.320;2023-07-31T03:48:15;23.57;;;9.57;;
58101;SDS011;52034;51.926;6.320;2023-07-31T03:49:16;21.08;;;8.70;;
58101;SDS011;52034;51.926;6.320;2023-07-31T03:50:16;23.90;;;8.67;;
58101;SDS011;52034;51.926;6.320;2023-07-31T03:51:17;22.10;;;8.47;;
58101;SDS011;52034;51.926;6.320;2023-07-31T03:52:17;24.37;;;8.40;;
58101;SDS011;52034;51.926;6.320;2023-07-31T03:53:18;25.60;;;8.93;;
58101;SDS011;52034;51.926;6.320;2023-07-31T03:54:18;20.27;;;8.60;;
58101;SDS011;52034;51.926;6.320;2023-07-31T03:55:18;24.53;;;8.73;;
58101;SDS011;52034;51.926;6.320;2023-07-31T03:56:19;22.93;;;8.50;;
58101;SDS011;52034;51.926;6.320;2023-07-31T03:57:19;19.37;;;8.03;;
58101;SDS011;52034;51.926;6.320;2023-07-31T03:58:19;22.73;;;8.00;;
58101;SDS011;52034;51.926;6.320;2023-07-31T03:59:20;17.63;;;7.87;;
58101;SDS011;52034;51.926;6.320;2023-07-31T04:00:20;23.17;;;8.57;;
58101;SDS011;52034;51.926;6.320;2023-07-31T04:01:22;20.23;;;8.20;;
58101;SDS011;52034;51.926;6.320;2023-07-31T04:02:22;24.47;;;8.23;;
58101;SDS011;52034;51.926;6.320;2023-07-31T04:03:23;19.37;;;8.30;;
58101;SDS011;52034;51.926;6.320;2023-07-31T04:04:23;20.77;;;7.50;;
58101;SDS011;52034;51.926;6.320;2023-07-31T04:05:23;24.03;;;8.57;;
58101;SDS011;52034;51.926;6.320;2023-07-31T04:06:24;19.57;;;7.70;;
58101;SDS011;52034;51.926;6.320;2023-07-31T04:07:24;19.40;;;8.13;;
58101;SDS011;52034;51.926;6.320;2023-07-31T04:08:24;23.20;;;7.70;;
58101;SDS011;52034;51.926;6.320;2023-07-31T04:09:25;23.80;;;7.80;;
58101;SDS011;52034;51.926;6.320;2023-07-31T04:10:25;18.63;;;7.67;;
58101;SDS011;52034;51.926;6.320;2023-07-31T04:11:25;25.60;;;9.33;;
58101;SDS011;52034;51.926;6.320;2023-07-31T04:12:26;24.07;;;8.80;;
58101;SDS011;52034;51.926;6.320;2023-07-31T04:13:26;23.03;;;8.30;;
58101;SDS011;52034;51.926;6.320;2023-07-31T04:14:28;21.25;;;8.18;;
58101;SDS011;52034;51.926;6.320;2023-07-31T04:15:28;23.23;;;8.27;;
58101;SDS011;52034;51.926;6.320;2023-07-31T04:16:29;20.67;;;7.73;;
58101;SDS011;52034;51.926;6.320;2023-07-31T04:17:29;26.10;;;8.17;;
58101;SDS011;52034;51.926;6.320;2023-07-31T04:18:30;24.13;;;8.70;;
58101;SDS011;52034;51.926;6.320;2023-07-31T04:19:31;20.73;;;8.40;;
58101;SDS011;52034;51.926;6.320;2023-07-31T04:20:31;20.30;;;8.20;;
58101;SDS011;52034;51.926;6.320;2023-07-31T04:21:31;22.30;;;8.57;;
58101;SDS011;52034;51.926;6.320;2023-07-31T04:22:32;17.20;;;7.83;;
58101;SDS011;52034;51.926;6.320;2023-07-31T04:23:32;22.60;;;7.83;;
58101;SDS011;52034;51.926;6.320;2023-07-31T04:24:33;19.47;;;8.17;;
58101;SDS011;52034;51.926;6.320;2023-07-31T04:25:33;20.97;;;7.50;;
58101;SDS011;52034;51.926;6.320;2023-07-31T04:27:35;24.13;;;8.52;;
58101;SDS011;52034;51.926;6.320;2023-07-31T04:28:35;20.80;;;8.30;;
58101;SDS011;52034;51.926;6.320;2023-07-31T04:29:35;24.80;;;8.27;;
58101;SDS011;52034;51.926;6.320;2023-07-31T04:30:36;24.13;;;8.63;;
58101;SDS011;52034;51.926;6.320;2023-07-31T04:31:36;22.90;;;8.73;;
58101;SDS011;52034;51.926;6.320;2023-07-31T04:32:36;22.37;;;8.70;;
58101;SDS011;52034;51.926;6.320;2023-07-31T04:33:37;21.50;;;8.57;;
58101;SDS011;52034;51.926;6.320;2023-07-31T04:34:37;22.23;;;7.83;;
58101;SDS011;52034;51.926;6.320;2023-07-31T04:35:38;23.90;;;8.40;;
58101;SDS011;52034;51.926;6.320;2023-07-31T04:36:38;22.87;;;7.70;;
58101;SDS011;52034;51.926;6.320;2023-07-31T04:37:38;22.10;;;8.30;;
58101;SDS011;52034;51.926;6.320;2023-07-31T04:38:39;24.30;;;7.67;;
58101;SDS011;52034;51.926;6.320;2023-07-31T04:39:41;22.83;;;8.70;;
58101;SDS011;52034;51.926;6.320;2023-07-31T04:40:41;21.40;;;8.17;;
58101;SDS011;52034;51.926;6.320;2023-07-31T04:41:41;22.10;;;7.77;;
58101;SDS011;52034;51.926;6.320;2023-07-31T04:42:42;22.97;;;8.00;;
58101;SDS011;52034;51.926;6.320;2023-07-31T04:43:42;20.20;;;7.73;;
58101;SDS011;52034;51.926;6.320;2023-07-31T04:44:42;19.47;;;7.83;;
58101;SDS011;52034;51.926;6.320;2023-07-31T04:45:45;23.60;;;8.07;;
58101;SDS011;52034;51.926;6.320;2023-07-31T04:46:47;21.00;;;7.57;;
58101;SDS011;52034;51.926;6.320;2023-07-31T04:47:48;21.67;;;8.57;;
58101;SDS011;52034;51.926;6.320;2023-07-31T04:48:48;20.63;;;7.90;;
58101;SDS011;52034;51.926;6.320;2023-07-31T04:49:48;18.20;;;7.80;;
58101;SDS011;52034;51.926;6.320;2023-07-31T04:50:49;18.83;;;7.93;;
58101;SDS011;52034;51.926;6.320;2023-07-31T04:51:49;23.60;;;7.97;;
58101;SDS011;52034;51.926;6.320;2023-07-31T04:52:49;19.33;;;8.83;;
58101;SDS011;52034;51.926;6.320;2023-07-31T04:53:50;20.27;;;8.37;;
58101;SDS011;52034;51.926;6.320;2023-07-31T04:54:50;27.10;;;8.43;;
58101;SDS011;52034;51.926;6.320;2023-07-31T04:55:50;21.83;;;7.40;;
58101;SDS011;52034;51.926;6.320;2023-07-31T04:56:51;19.10;;;7.67;;
58101;SDS011;52034;51.926;6.320;2023-07-31T04:57:52;21.80;;;7.40;;
58101;SDS011;52034;51.926;6.320;2023-07-31T04:58:53;19.03;;;7.83;;
58101;SDS011;52034;51.926;6.320;2023-07-31T04:59:53;24.97;;;8.50;;
58101;SDS011;52034;51.926;6.320;2023-07-31T05:00:53;24.80;;;8.77;;
58101;SDS011;52034;51.926;6.320;2023-07-31T05:01:54;24.63;;;8.30;;
58101;SDS011;52034;51.926;6.320;2023-07-31T05:02:54;21.57;;;7.70;;
58101;SDS011;52034;51.926;6.320;2023-07-31T05:03:54;22.07;;;7.87;;
58101;SDS011;52034;51.926;6.320;2023-07-31T05:04:55;21.63;;;8.23;;
58101;SDS011;52034;51.926;6.320;2023-07-31T05:05:55;16.83;;;7.87;;
58101;SDS011;52034;51.926;6.320;2023-07-31T05:06:55;23.87;;;8.60;;
58101;SDS011;52034;51.926;6.320;2023-07-31T05:07:56;20.17;;;8.00;;
58101;SDS011;52034;51.926;6.320;2023-07-31T05:08:56;19.67;;;7.47;;
58101;SDS011;52034;51.926;6.320;2023-07-31T05:09:56;18.40;;;8.00;;
58101;SDS011;52034;51.926;6.320;2023-07-31T05:10:57;21.37;;;8.40;;
58101;SDS011;52034;51.926;6.320;2023-07-31T05:11:57;20.27;;;8.03;;
58101;SDS011;52034;51.926;6.320;2023-07-31T05:12:57;19.87;;;7.70;;
58101;SDS011;52034;51.926;6.320;2023-07-31T05:13:57;20.87;;;7.43;;
58101;SDS011;52034;51.926;6.320;2023-07-31T05:14:58;23.10;;;8.63;;
58101;SDS011;52034;51.926;6.320;2023-07-31T05:15:58;17.50;;;7.27;;
58101;SDS011;52034;51.926;6.320;2023-07-31T05:16:58;18.63;;;7.97;;
58101;SDS011;52034;51.926;6.320;2023-07-31T05:17:59;17.80;;;7.63;;
58101;SDS011;52034;51.926;6.320;2023-07-31T05:18:59;20.87;;;7.53;;
58101;SDS011;52034;51.926;6.320;2023-07-31T05:19:59;17.03;;;6.63;;
58101;SDS011;52034;51.926;6.320;2023-07-31T05:21:00;20.57;;;6.97;;
58101;SDS011;52034;51.926;6.320;2023-07-31T05:22:00;19.20;;;7.77;;
58101;SDS011;52034;51.926;6.320;2023-07-31T05:23:00;20.60;;;7.53;;
58101;SDS011;52034;51.926;6.320;2023-07-31T05:24:01;17.10;;;6.97;;
58101;SDS011;52034;51.926;6.320;2023-07-31T05:25:01;17.27;;;6.73;;
58101;SDS011;52034;51.926;6.320;2023-07-31T05:26:04;17.70;;;7.00;;
58101;SDS011;52034;51.926;6.320;2023-07-31T05:27:06;17.65;;;7.20;;
58101;SDS011;52034;51.926;6.320;2023-07-31T05:28:06;17.80;;;6.90;;
58101;SDS011;52034;51.926;6.320;2023-07-31T05:29:07;18.73;;;7.33;;
58101;SDS011;52034;51.926;6.320;2023-07-31T05:30:07;20.23;;;7.37;;
58101;SDS011;52034;51.926;6.320;2023-07-31T05:31:08;18.15;;;7.18;;
58101;SDS011;52034;51.926;6.320;2023-07-31T05:32:08;20.20;;;7.20;;
58101;SDS011;52034;51.926;6.320;2023-07-31T05:33:09;18.17;;;7.03;;
58101;SDS011;52034;51.926;6.320;2023-07-31T05:34:09;21.87;;;6.87;;
58101;SDS011;52034;51.926;6.320;2023-07-31T05:35:09;19.87;;;7.00;;
58101;SDS011;52034;51.926;6.320;2023-07-31T05:36:10;19.03;;;7.13;;
58101;SDS011;52034;51.926;6.320;2023-07-31T05:37:10;18.73;;;6.97;;
58101;SDS011;52034;51.926;6.320;2023-07-31T05:38:11;15.63;;;6.50;;
58101;SDS011;52034;51.926;6.320;2023-07-31T05:39:12;18.77;;;7.00;;
58101;SDS011;52034;51.926;6.320;2023-07-31T05:40:12;23.43;;;7.40;;
58101;SDS011;52034;51.926;6.320;2023-07-31T05:41:12;20.33;;;6.87;;
58101;SDS011;52034;51.926;6.320;2023-07-31T05:42:13;17.10;;;6.83;;
58101;SDS011;52034;51.926;6.320;2023-07-31T05:43:13;22.57;;;7.60;;
58101;SDS011;52034;51.926;6.320;2023-07-31T05:44:14;14.10;;;6.35;;
58101;SDS011;52034;51.926;6.320;2023-07-31T05:45:15;16.63;;;6.07;;
58101;SDS011;52034;51.926;6.320;2023-07-31T05:46:15;20.13;;;7.07;;
58101;SDS011;52034;51.926;6.320;2023-07-31T05:47:15;18.70;;;6.90;;
58101;SDS011;52034;51.926;6.320;2023-07-31T05:48:16;17.27;;;6.23;;
58101;SDS011;52034;51.926;6.320;2023-07-31T05:49:16;19.27;;;7.03;;
58101;SDS011;52034;51.926;6.320;2023-07-31T05:50:16;18.07;;;7.17;;
58101;SDS011;52034;51.926;6.320;2023-07-31T05:51:16;14.63;;;6.70;;
58101;SDS011;52034;51.926;6.320;2023-07-31T05:52:17;20.57;;;7.87;;
58101;SDS011;52034;51.926;6.320;2023-07-31T05:53:17;22.67;;;7.17;;
58101;SDS011;52034;51.926;6.320;2023-07-31T05:54:17;15.30;;;6.63;;
58101;SDS011;52034;51.926;6.320;2023-07-31T05:55:18;18.53;;;6.93;;
58101;SDS011;52034;51.926;6.320;2023-07-31T05:56:18;16.83;;;6.73;;
58101;SDS011;52034;51.926;6.320;2023-07-31T05:57:18;17.80;;;7.07;;
58101;SDS011;52034;51.926;6.320;2023-07-31T05:58:19;17.97;;;7.00;;
58101;SDS011;52034;51.926;6.320;2023-07-31T05:59:19;17.77;;;7.17;;
58101;SDS011;52034;51.926;6.320;2023-07-31T06:00:20;15.57;;;6.70;;
58101;SDS011;52034;51.926;6.320;2023-07-31T06:01:20;20.95;;;7.20;;
58101;SDS011;52034;51.926;6.320;2023-07-31T06:02:21;16.20;;;6.20;;
58101;SDS011;52034;51.926;6.320;2023-07-31T06:03:21;18.03;;;6.90;;
58101;SDS011;52034;51.926;6.320;2023-07-31T06:04:22;17.57;;;6.77;;
58101;SDS011;52034;51.926;6.320;2023-07-31T06:05:25;17.15;;;7.25;;
58101;SDS011;52034;51.926;6.320;2023-07-31T06:06:26;21.88;;;7.55;;